Flight Track Log - Related Links

Times and Time Zones

All times are in EDT time to prevent confusion due to time zone crossing. See the SLI2121 flight status page for this flight to view local times or setup timezone preferences in your user account.

Time Position Orientation Groundspeed Altitude Reporting Facility
EDT Latitude Longitude Course Direction KTS MPH feet Rate Location/Type
Tue 02:46:00 PM 24.5741 -107.2796 137° Southeast  Level Estimated
Tue 02:47:00 PM 24.5105 -107.2147 137° Southeast  Level Estimated
Tue 02:48:00 PM 24.4469 -107.1498 137° Southeast  Level Estimated
Tue 02:49:00 PM 24.3833 -107.0851 137° Southeast  Level Estimated
Tue 02:50:00 PM 24.3197 -107.0204 137° Southeast  Level Estimated
Tue 02:51:00 PM 24.2560 -106.9557 137° Southeast  Level Estimated
Tue 02:52:00 PM 24.1923 -106.8911 137° Southeast  Level Estimated
Tue 02:53:00 PM 24.1286 -106.8266 137° Southeast  Level Estimated
Tue 02:54:00 PM 24.0649 -106.7622 137° Southeast  Level Estimated
Tue 02:55:00 PM 24.0011 -106.6978 137° Southeast  Level Estimated
Tue 02:56:00 PM 23.9373 -106.6335 137° Southeast  Level Estimated
Tue 02:57:00 PM 23.8735 -106.5692 137° Southeast  Level Estimated
Tue 02:58:00 PM 23.8096 -106.5050 137° Southeast  Level Estimated
Tue 02:59:00 PM 23.7458 -106.4409 137° Southeast  Level Estimated
Tue 03:00:00 PM 23.6819 -106.3768 137° Southeast  Level Estimated
Tue 03:01:00 PM 23.6179 -106.3128 137° Southeast  Level Estimated
Tue 03:02:00 PM 23.5540 -106.2488 137° Southeast  Level Estimated
Tue 03:03:00 PM 23.4900 -106.1850 138° Southeast  Level Estimated
Tue 03:04:00 PM 23.4260 -106.1211 138° Southeast  Level Estimated
Tue 03:05:00 PM 23.3619 -106.0574 138° Southeast  Level Estimated
Tue 03:06:00 PM 23.2979 -105.9937 138° Southeast  Level Estimated
Tue 03:07:00 PM 23.2338 -105.9300 138° Southeast  Level Estimated
Tue 03:08:00 PM 23.1697 -105.8664 138° Southeast  Level Estimated
Tue 03:09:00 PM 23.1056 -105.8029 138° Southeast  Level Estimated
Tue 03:10:00 PM 23.0414 -105.7395 138° Southeast  Level Estimated
Tue 03:11:00 PM 22.9772 -105.6761 138° Southeast  Level Estimated
Tue 03:12:00 PM 22.9130 -105.6128 138° Southeast  Level Estimated
Tue 03:13:00 PM 22.8487 -105.5495 138° Southeast  Level Estimated
Tue 03:14:00 PM 22.7845 -105.4863 138° Southeast  Level Estimated
Tue 03:15:00 PM 22.7202 -105.4231 138° Southeast  Level Estimated
Tue 03:16:00 PM 22.6559 -105.3600 138° Southeast  Level Estimated
Tue 03:17:00 PM 22.5916 -105.2970 138° Southeast  Level Estimated
Tue 03:18:00 PM 22.5272 -105.2340 138° Southeast  Level Estimated
Tue 03:19:00 PM 22.4628 -105.1711 138° Southeast  Level Estimated
Tue 03:20:00 PM 22.3984 -105.1082 138° Southeast  Level Estimated
Tue 03:21:00 PM 22.3340 -105.0454 138° Southeast  Level Estimated
Tue 03:22:00 PM 22.2695 -104.9827 138° Southeast  Level Estimated
Tue 03:23:00 PM 22.2050 -104.9200 138° Southeast  Level Estimated
Tue 03:24:00 PM 22.1405 -104.8574 138° Southeast  Level Estimated
Tue 03:25:00 PM 22.0760 -104.7948 138° Southeast  Level Estimated
Tue 03:26:00 PM 22.0114 -104.7323 138° Southeast  Level Estimated
Tue 03:27:00 PM 21.9468 -104.6698 138° Southeast  Level Estimated
Tue 03:28:00 PM 21.8822 -104.6074 138° Southeast  Level Estimated
Tue 03:29:00 PM 21.8176 -104.5451 138° Southeast  Level Estimated
Tue 03:30:00 PM 21.7530 -104.4828 138° Southeast  Level Estimated
Tue 03:31:00 PM 21.6883 -104.4206 138° Southeast  Level Estimated
Tue 03:32:00 PM 21.6236 -104.3584 138° Southeast  Level Estimated
Tue 03:33:00 PM 21.5589 -104.2963 138° Southeast  Level Estimated
Tue 03:34:00 PM 21.4941 -104.2342 138° Southeast  Level Estimated
Tue 03:35:00 PM 21.4294 -104.1722 138° Southeast  Level Estimated
Tue 03:36:00 PM 21.3646 -104.1103 138° Southeast  Level Estimated
Tue 03:37:00 PM 21.2998 -104.0484 138° Southeast  Level Estimated
Tue 03:38:00 PM 21.2349 -103.9865 138° Southeast  Level Estimated
Tue 03:39:00 PM 21.1701 -103.9247 138° Southeast  Level Estimated
Tue 03:40:00 PM 21.1052 -103.8630 138° Southeast  Level Estimated
Tue 03:41:00 PM 21.0403 -103.8013 138° Southeast  Level Estimated
Tue 03:42:00 PM 20.9754 -103.7397 138° Southeast  Level Estimated
Tue 03:43:00 PM 20.9104 -103.6781 138° Southeast  Level Estimated
Tue 03:44:00 PM 20.8455 -103.6166 138° Southeast  Level Estimated
Tue 03:45:00 PM 20.7805 -103.5551 139° Southeast  Level Estimated
Tue 03:46:00 PM 20.7155 -103.4937 139° Southeast  Level Estimated
Tue 03:47:00 PM 20.6504 -103.4323 139° Southeast  Level Estimated
Tue 03:48:00 PM 20.5854 -103.3710 139° Southeast  Level Estimated
Tue 03:49:00 PM 20.5218 -103.3112 139° Southeast  Level Estimated
Tue 03:50:00 PM 20.5218 -103.3112 90° East  Level Estimated
Tue 03:51:00 PM 20.5218 -103.3112 90° East  Level Estimated
Tue 03:52:00 PM 20.5218 -103.3112 90° East  Level Estimated
Tue 03:53:00 PM 20.5218 -103.3112 90° East  Level Estimated

Login

Don't have an account? Register now (free) for customized features, flight alerts, and more!